createdAt,value
2022-09-13T00:03:05.386Z,22.99
2022-09-13T00:08:08.364Z,22.98
2022-09-13T00:13:13.112Z,22.95
2022-09-13T00:18:15.905Z,22.91
2022-09-13T00:23:18.634Z,22.89
2022-09-13T00:28:22.917Z,22.86
2022-09-13T00:33:25.669Z,22.84
2022-09-13T00:38:28.372Z,22.81
2022-09-13T00:43:49.749Z,22.82
2022-09-13T00:48:54.160Z,22.78
2022-09-13T00:53:57.052Z,22.76
2022-09-13T00:59:01.749Z,22.75
2022-09-13T01:04:04.453Z,22.73
2022-09-13T01:09:07.147Z,22.72
2022-09-13T01:14:11.173Z,22.72
2022-09-13T01:19:13.886Z,22.72
2022-09-13T01:24:32.471Z,22.71
2022-09-13T01:30:02.895Z,22.69
2022-09-13T01:35:09.939Z,22.67
2022-09-13T01:40:18.720Z,22.67
2022-09-13T01:45:25.930Z,22.65
2022-09-13T01:50:34.497Z,22.64
2022-09-13T01:55:40.332Z,22.65
2022-09-13T02:00:45.916Z,22.63
2022-09-13T02:05:51.205Z,22.61
2022-09-13T02:10:56.331Z,22.60
2022-09-13T02:16:03.376Z,22.60
2022-09-13T02:21:08.693Z,22.58
2022-09-13T02:26:11.347Z,22.57
2022-09-13T02:31:16.032Z,22.58
2022-09-13T02:36:21.115Z,22.56
2022-09-13T02:41:27.528Z,22.53
2022-09-13T02:46:39.613Z,22.53
2022-09-13T02:51:45.595Z,22.52
2022-09-13T02:56:52.812Z,22.50
2022-09-13T03:01:59.490Z,22.49
2022-09-13T03:07:03.148Z,22.48
2022-09-13T03:12:25.274Z,22.48
2022-09-13T03:17:39.391Z,22.47
2022-09-13T03:23:08.401Z,22.43
2022-09-13T03:28:15.055Z,22.42
2022-09-13T03:33:21.582Z,22.38
2022-09-13T03:38:27.873Z,22.38
2022-09-13T03:43:35.825Z,22.39
2022-09-13T03:48:40.558Z,22.34
2022-09-13T03:53:44.283Z,22.33
2022-09-13T03:58:47.047Z,22.34
2022-09-13T04:03:55.847Z,22.32
2022-09-13T04:09:00.531Z,22.28
2022-09-13T04:14:03.425Z,22.26
2022-09-13T04:19:07.426Z,22.24
2022-09-13T04:24:10.147Z,22.22
2022-09-13T04:29:13.054Z,22.17
2022-09-13T04:34:18.551Z,22.15
2022-09-13T04:39:21.404Z,22.13
2022-09-13T04:44:24.550Z,22.11
2022-09-13T04:49:28.686Z,22.07
2022-09-13T04:54:31.382Z,22.06
2022-09-13T04:59:34.025Z,22.10
2022-09-13T05:04:38.392Z,22.09
2022-09-13T05:09:41.511Z,22.08
2022-09-13T05:14:44.381Z,22.06
2022-09-13T05:19:49.392Z,22.07
2022-09-13T05:24:52.069Z,22.08
2022-09-13T05:29:54.719Z,22.08
2022-09-13T05:34:58.912Z,22.09
2022-09-13T05:40:17.048Z,22.08
2022-09-13T05:45:19.835Z,22.07
2022-09-13T05:50:54.193Z,22.10
2022-09-13T05:55:46.761Z,22.10
2022-09-13T06:00:53.985Z,22.11
2022-09-13T06:05:58.613Z,22.12
2022-09-13T06:11:02.277Z,22.11
2022-09-13T06:16:06.726Z,22.11
2022-09-13T06:21:11.994Z,22.13
2022-09-13T06:26:16.180Z,22.15
2022-09-13T06:31:19.654Z,22.15
2022-09-13T06:36:23.814Z,22.16
2022-09-13T06:41:27.209Z,22.15
2022-09-13T06:46:31.144Z,22.13
2022-09-13T06:51:35.669Z,21.74
2022-09-13T06:56:39.082Z,21.14
2022-09-13T07:01:43.270Z,20.87
2022-09-13T07:06:48.108Z,20.82
2022-09-13T07:11:51.400Z,20.70
2022-09-13T07:16:54.336Z,20.54
2022-09-13T07:21:58.443Z,20.48
2022-09-13T07:27:01.086Z,20.48
2022-09-13T07:32:03.892Z,20.27
2022-09-13T07:37:07.915Z,20.29
2022-09-13T07:42:10.764Z,20.33
2022-09-13T07:47:13.512Z,20.27
2022-09-13T07:52:17.574Z,20.37
2022-09-13T07:57:20.280Z,20.46
2022-09-13T08:02:23.004Z,20.46
2022-09-13T08:07:27.140Z,20.40
2022-09-13T08:12:29.877Z,20.39
2022-09-13T08:17:32.557Z,20.37
2022-09-13T08:22:36.671Z,20.42
2022-09-13T08:27:39.404Z,20.41
2022-09-13T08:32:42.132Z,20.38
2022-09-13T08:37:46.396Z,20.41
2022-09-13T08:42:52.333Z,20.50
2022-09-13T08:47:57.527Z,20.52
2022-09-13T08:53:14.060Z,20.55
2022-09-13T08:58:38.390Z,20.54
2022-09-13T09:03:43.908Z,20.60
2022-09-13T09:08:48.944Z,20.62
2022-09-13T09:13:52.983Z,20.66
2022-09-13T09:18:56.062Z,20.70
2022-09-13T09:24:00.082Z,20.75
2022-09-13T09:29:09.512Z,20.75
2022-09-13T09:34:15.499Z,20.80
2022-09-13T09:39:19.632Z,20.86
2022-09-13T09:44:22.972Z,20.93
2022-09-13T09:49:45.375Z,20.94
2022-09-13T09:54:49.535Z,20.99
2022-09-13T09:59:52.310Z,20.99
2022-09-13T10:04:56.654Z,21.01
2022-09-13T10:10:02.425Z,21.13
2022-09-13T10:15:07.901Z,21.11
2022-09-13T10:20:21.674Z,21.18
2022-09-13T10:25:27.078Z,21.21
2022-09-13T10:30:33.891Z,21.27
2022-09-13T10:35:36.984Z,21.33
2022-09-13T10:40:40.982Z,21.31
2022-09-13T10:45:43.802Z,21.56
2022-09-13T10:51:02.156Z,21.75
2022-09-13T10:56:06.875Z,21.86
2022-09-13T11:01:17.810Z,21.92
2022-09-13T11:06:24.488Z,21.87
2022-09-13T11:11:30.771Z,21.91
2022-09-13T11:16:39.085Z,22.06
2022-09-13T11:21:48.715Z,22.15
2022-09-13T11:26:58.894Z,22.15
2022-09-13T11:32:07.700Z,22.24
2022-09-13T11:37:28.250Z,22.33
2022-09-13T11:42:40.850Z,22.45
2022-09-13T11:47:50.027Z,22.56
2022-09-13T11:52:58.875Z,22.64
2022-09-13T11:58:04.190Z,22.75
2022-09-13T12:03:11.166Z,22.69
2022-09-13T12:08:15.233Z,22.78
2022-09-13T12:13:21.792Z,22.89
2022-09-13T12:18:26.331Z,22.87
2022-09-13T12:23:31.112Z,22.88
2022-09-13T12:28:36.237Z,22.75
2022-09-13T12:33:40.350Z,22.80
2022-09-13T12:39:33.984Z,22.89
2022-09-13T12:44:56.541Z,22.94
2022-09-13T12:56:04.231Z,22.83
2022-09-13T13:01:11.800Z,22.77
2022-09-13T13:06:22.897Z,22.82
2022-09-13T13:11:26.774Z,22.89
2022-09-13T13:16:33.040Z,22.89
2022-09-13T13:21:37.693Z,22.88
2022-09-13T13:26:48.413Z,23.21
2022-09-13T13:32:11.084Z,23.43
2022-09-13T13:37:35.542Z,23.38
2022-09-13T13:42:39.661Z,23.37
2022-09-13T13:48:15.227Z,23.47
2022-09-13T13:53:23.245Z,23.49
2022-09-13T13:58:45.231Z,23.46
2022-09-13T14:03:59.523Z,23.55
2022-09-13T14:09:17.644Z,23.55
2022-09-13T14:14:29.296Z,23.50
2022-09-13T14:19:34.033Z,23.58
2022-09-13T14:24:39.998Z,23.62
2022-09-13T14:29:45.850Z,23.60
2022-09-13T14:34:55.723Z,23.67
2022-09-13T14:39:59.548Z,23.79
2022-09-13T14:45:03.387Z,23.73
2022-09-13T14:50:09.112Z,23.77
2022-09-13T14:55:14.805Z,23.63
2022-09-13T15:00:19.090Z,23.57
2022-09-13T15:05:26.684Z,23.64
2022-09-13T15:10:32.943Z,23.61
2022-09-13T15:15:36.833Z,23.60
2022-09-13T15:20:49.362Z,23.60
2022-09-13T15:25:54.372Z,23.60
2022-09-13T15:30:57.725Z,23.61
2022-09-13T15:36:28.114Z,23.63
2022-09-13T15:41:32.481Z,23.68
2022-09-13T15:46:37.872Z,23.73
2022-09-13T15:51:42.241Z,23.68
2022-09-13T15:56:46.610Z,23.71
2022-09-13T16:01:50.022Z,23.73
2022-09-13T16:06:54.285Z,23.74
2022-09-13T16:11:57.316Z,23.74
2022-09-13T16:17:00.865Z,23.76
2022-09-13T16:22:06.355Z,23.80
2022-09-13T16:27:11.686Z,23.89
2022-09-13T16:32:14.334Z,23.87
2022-09-13T16:37:19.700Z,23.87
2022-09-13T16:42:22.372Z,23.92
2022-09-13T16:47:25.046Z,23.93
2022-09-13T16:52:29.258Z,23.80
2022-09-13T16:57:32.053Z,23.92
2022-09-13T17:02:35.216Z,23.97
2022-09-13T17:07:39.413Z,23.98
2022-09-13T17:12:42.170Z,23.98
2022-09-13T17:17:45.238Z,23.99
2022-09-13T17:22:49.247Z,23.92
2022-09-13T17:27:51.938Z,23.99
2022-09-13T17:32:54.563Z,24.01
2022-09-13T17:37:58.528Z,24.01
2022-09-13T17:43:01.612Z,24.03
2022-09-13T17:48:04.392Z,24.03
2022-09-13T17:53:08.385Z,24.06
2022-09-13T17:58:11.009Z,24.10
2022-09-13T18:03:14.107Z,24.08
2022-09-13T18:08:18.176Z,24.10
2022-09-13T18:13:20.824Z,24.10
2022-09-13T18:18:24.219Z,24.09
2022-09-13T18:23:28.647Z,24.12
2022-09-13T18:28:31.508Z,24.14
2022-09-13T18:33:34.274Z,24.12
2022-09-13T18:38:39.000Z,24.13
2022-09-13T18:43:42.781Z,24.12
2022-09-13T18:48:46.110Z,24.15
2022-09-13T18:53:50.346Z,24.14
2022-09-13T18:58:53.396Z,24.13
2022-09-13T19:03:57.063Z,24.14
2022-09-13T19:09:01.486Z,24.12
2022-09-13T19:14:04.173Z,24.14
2022-09-13T19:19:06.825Z,24.17
2022-09-13T19:24:16.231Z,24.15
2022-09-13T19:29:20.666Z,24.15
2022-09-13T19:34:23.497Z,24.16
2022-09-13T19:39:30.329Z,24.16
2022-09-13T19:44:33.329Z,24.17
2022-09-13T19:49:36.088Z,24.16
2022-09-13T19:54:40.320Z,24.17
2022-09-13T19:59:42.987Z,24.18
2022-09-13T20:04:47.504Z,24.18
2022-09-13T20:09:52.685Z,24.16
2022-09-13T20:14:55.395Z,24.18
2022-09-13T20:19:58.462Z,24.20
2022-09-13T20:25:03.742Z,24.16
2022-09-13T20:30:07.937Z,24.16
2022-09-13T20:35:11.540Z,24.18
2022-09-13T20:40:16.057Z,24.21
2022-09-13T20:45:18.785Z,24.20
2022-09-13T20:50:21.567Z,24.21
2022-09-13T20:55:26.345Z,24.19
2022-09-13T21:00:29.050Z,24.19
2022-09-13T21:05:31.901Z,24.19
2022-09-13T21:10:35.970Z,24.18
2022-09-13T21:15:39.102Z,24.22
2022-09-13T21:20:41.759Z,24.18
2022-09-13T21:25:46.219Z,24.16
2022-09-13T21:30:58.952Z,24.20
2022-09-13T21:36:02.685Z,24.16
2022-09-13T21:41:07.550Z,24.18
2022-09-13T21:46:13.065Z,24.19
2022-09-13T21:51:16.733Z,24.17
2022-09-13T21:56:21.504Z,24.16
2022-09-13T22:01:24.730Z,24.14
2022-09-13T22:06:32.665Z,24.18
2022-09-13T22:11:39.041Z,24.16
2022-09-13T22:16:42.832Z,24.13
2022-09-13T22:21:46.491Z,24.09
2022-09-13T22:26:51.208Z,24.04
2022-09-13T22:31:54.031Z,24.00
2022-09-13T22:36:56.672Z,23.96
2022-09-13T22:42:00.685Z,23.94
2022-09-13T22:47:03.369Z,23.90
2022-09-13T22:52:06.174Z,23.84
2022-09-13T22:57:10.343Z,23.79
2022-09-13T23:02:13.003Z,23.74
2022-09-13T23:07:15.747Z,23.70
2022-09-13T23:12:19.884Z,23.63
2022-09-13T23:17:22.687Z,23.60
2022-09-13T23:22:25.461Z,23.57
2022-09-13T23:27:30.277Z,23.54
2022-09-13T23:32:33.086Z,23.51
2022-09-13T23:37:35.853Z,23.48
2022-09-13T23:42:40.001Z,23.43
2022-09-13T23:47:42.792Z,23.42
2022-09-13T23:52:45.553Z,23.37
2022-09-13T23:57:49.627Z,23.35
